createdAt,value
2023-10-15T00:00:00.379Z,5.98
2023-10-15T00:01:02.155Z,5.98
2023-10-15T00:02:03.947Z,5.97
2023-10-15T00:03:05.697Z,5.97
2023-10-15T00:04:07.296Z,5.96
2023-10-15T00:05:10.143Z,5.94
2023-10-15T00:06:10.775Z,5.93
2023-10-15T00:07:12.487Z,5.92
2023-10-15T00:08:14.251Z,5.91
2023-10-15T00:09:15.967Z,5.91
2023-10-15T00:10:17.744Z,5.89
2023-10-15T00:11:19.424Z,5.89
2023-10-15T00:12:21.190Z,5.87
2023-10-15T00:13:24.087Z,5.87
2023-10-15T00:14:24.919Z,5.86
2023-10-15T00:15:26.375Z,5.85
2023-10-15T00:16:28.154Z,5.85
2023-10-15T00:17:29.915Z,5.84
2023-10-15T00:18:31.622Z,5.83
2023-10-15T00:19:33.331Z,5.82
2023-10-15T00:20:35.061Z,5.81
2023-10-15T00:21:36.783Z,5.81
2023-10-15T00:22:38.570Z,5.8
2023-10-15T00:23:40.243Z,5.8
2023-10-15T00:24:41.984Z,5.8
2023-10-15T00:25:43.990Z,5.8
2023-10-15T00:26:45.436Z,5.79
2023-10-15T00:27:47.166Z,5.78
2023-10-15T00:28:49.010Z,5.79
2023-10-15T00:29:50.646Z,5.79
2023-10-15T00:30:51.838Z,5.79
2023-10-15T00:31:54.133Z,5.79
2023-10-15T00:32:55.890Z,5.78
2023-10-15T00:33:59.027Z,5.8
2023-10-15T00:35:00.644Z,5.8
2023-10-15T00:36:01.051Z,5.8
2023-10-15T00:37:02.775Z,5.81
2023-10-15T00:38:04.535Z,5.81
2023-10-15T00:39:06.240Z,5.82
2023-10-15T00:40:07.958Z,5.82
2023-10-15T00:41:09.712Z,5.83
2023-10-15T00:42:11.429Z,5.84
2023-10-15T00:43:13.173Z,5.85
2023-10-15T00:44:14.926Z,5.85
2023-10-15T00:45:15.588Z,5.86
2023-10-15T00:46:18.438Z,5.85
2023-10-15T00:47:20.218Z,5.85
2023-10-15T00:48:21.834Z,5.85
2023-10-15T00:49:23.572Z,5.84
2023-10-15T00:50:25.293Z,5.84
2023-10-15T00:51:27.055Z,5.84
2023-10-15T00:52:28.840Z,5.84
2023-10-15T00:53:30.508Z,5.83
2023-10-15T00:54:32.236Z,5.83
2023-10-15T00:55:35.491Z,5.82
2023-10-15T00:56:35.705Z,5.81
2023-10-15T00:57:37.429Z,5.8
2023-10-15T00:58:40.306Z,5.8
2023-10-15T00:59:40.916Z,5.79
2023-10-15T01:00:42.648Z,5.79
2023-10-15T01:01:44.468Z,5.78
2023-10-15T01:02:46.207Z,5.76
2023-10-15T01:03:47.898Z,5.76
2023-10-15T01:04:49.644Z,5.75
2023-10-15T01:05:51.330Z,5.74
2023-10-15T01:06:53.055Z,5.74
2023-10-15T01:07:54.013Z,5.72
2023-10-15T01:08:56.509Z,5.71
2023-10-15T01:09:58.257Z,5.71
2023-10-15T01:11:00.011Z,5.69
2023-10-15T01:12:06.259Z,5.68
2023-10-15T01:13:08.593Z,5.67
2023-10-15T01:14:10.305Z,5.67
2023-10-15T01:22:11.001Z,5.55
2023-10-15T01:24:12.937Z,5.52
2023-10-15T01:25:13.282Z,5.5
2023-10-15T01:26:15.014Z,5.48
2023-10-15T01:27:16.700Z,5.47
2023-10-15T01:28:18.451Z,5.45
2023-10-15T01:29:20.206Z,5.43
2023-10-15T01:30:21.933Z,5.42
2023-10-15T01:31:23.717Z,5.41
2023-10-15T01:32:25.409Z,5.4
2023-10-15T01:33:27.112Z,5.38
2023-10-15T01:34:28.999Z,5.38
2023-10-15T01:35:30.577Z,5.37
2023-10-15T01:36:32.310Z,5.36
2023-10-15T01:37:34.082Z,5.36
2023-10-15T01:38:35.781Z,5.35
2023-10-15T01:39:37.538Z,5.34
2023-10-15T01:40:39.286Z,5.33
2023-10-15T01:41:41.117Z,5.31
2023-10-15T01:42:42.807Z,5.29
2023-10-15T01:43:44.452Z,5.27
2023-10-15T01:44:46.230Z,5.26
2023-10-15T01:45:47.905Z,5.25
2023-10-15T01:46:49.760Z,5.23
2023-10-15T01:47:51.781Z,5.23
2023-10-15T01:48:53.130Z,5.24
2023-10-15T01:49:54.937Z,5.23
2023-10-15T01:50:56.608Z,5.24
2023-10-15T01:51:58.300Z,5.25
2023-10-15T01:53:00.104Z,5.25
2023-10-15T01:54:01.797Z,5.27
2023-10-15T01:55:03.545Z,5.28
2023-10-15T01:56:05.310Z,5.29
2023-10-15T01:57:11.174Z,5.3
2023-10-15T01:58:13.922Z,5.32
2023-10-15T01:59:15.713Z,5.32
2023-10-15T02:00:17.331Z,5.34
2023-10-15T02:01:19.253Z,5.35
2023-10-15T02:02:20.881Z,5.37
2023-10-15T02:03:22.595Z,5.39
2023-10-15T02:04:24.609Z,5.4
2023-10-15T02:05:26.167Z,5.42
2023-10-15T02:06:27.721Z,5.43
2023-10-15T02:07:29.486Z,5.45
2023-10-15T02:08:31.185Z,5.48
2023-10-15T02:09:32.942Z,5.49
2023-10-15T02:10:34.708Z,5.51
2023-10-15T02:11:36.431Z,5.53
2023-10-15T02:12:38.221Z,5.55
2023-10-15T02:13:39.960Z,5.58
2023-10-15T02:14:41.657Z,5.6
2023-10-15T02:15:43.496Z,5.62
2023-10-15T02:16:45.187Z,5.65
2023-10-15T02:17:46.824Z,5.66
2023-10-15T02:18:48.850Z,5.69
2023-10-15T02:19:50.296Z,5.71
2023-10-15T02:20:52.358Z,5.73
2023-10-15T02:21:53.750Z,5.75
2023-10-15T02:22:55.502Z,5.77
2023-10-15T02:23:57.187Z,5.78
2023-10-15T02:24:58.928Z,5.8
2023-10-15T02:26:01.333Z,5.81
2023-10-15T02:27:02.451Z,5.84
2023-10-15T02:28:05.640Z,5.84
2023-10-15T02:29:05.857Z,5.86
2023-10-15T02:30:07.606Z,5.87
2023-10-15T02:31:09.910Z,5.88
2023-10-15T02:32:11.171Z,5.9
2023-10-15T02:33:12.826Z,5.91
2023-10-15T02:34:14.553Z,5.93
2023-10-15T02:35:16.254Z,5.94
2023-10-15T02:36:18.046Z,5.94
2023-10-15T02:37:19.848Z,5.96
2023-10-15T02:38:21.450Z,5.97
2023-10-15T02:39:23.215Z,5.97
2023-10-15T02:40:24.948Z,5.98
2023-10-15T02:41:26.683Z,5.98
2023-10-15T02:42:28.411Z,5.99
2023-10-15T02:43:30.209Z,5.99
2023-10-15T02:44:31.910Z,5.99
2023-10-15T02:45:33.612Z,6
2023-10-15T02:46:35.419Z,6.01
2023-10-15T02:47:37.073Z,6.01
2023-10-15T02:48:38.808Z,6.02
2023-10-15T02:49:40.605Z,6.02
2023-10-15T02:50:42.324Z,6.02
2023-10-15T02:51:44.004Z,6.02
2023-10-15T02:52:49.582Z,6.01
2023-10-15T02:53:47.473Z,6.02
2023-10-15T02:54:53.685Z,6.02
2023-10-15T02:55:56.110Z,6.02
2023-10-15T02:56:58.002Z,6.03
2023-10-15T02:58:01.292Z,6.02
2023-10-15T02:59:07.595Z,6.02
2023-10-15T03:00:08.197Z,6.02
2023-10-15T03:01:09.930Z,6.01
2023-10-15T03:02:13.123Z,6
2023-10-15T03:03:13.431Z,6.01
2023-10-15T03:04:15.076Z,6
2023-10-15T03:05:15.315Z,6
2023-10-15T03:06:18.591Z,5.99
2023-10-15T03:07:20.331Z,5.99
2023-10-15T03:08:26.142Z,5.98
2023-10-15T03:09:23.759Z,5.98
2023-10-15T03:10:25.535Z,5.97
2023-10-15T03:11:27.212Z,5.97
2023-10-15T03:12:30.864Z,5.96
2023-10-15T03:13:35.885Z,5.96
2023-10-15T03:14:37.567Z,5.95
2023-10-15T03:15:40.714Z,5.94
2023-10-15T03:16:41.065Z,5.93
2023-10-15T03:17:42.803Z,5.92
2023-10-15T03:18:45.995Z,5.92
2023-10-15T03:19:46.288Z,5.89
2023-10-15T03:20:47.967Z,5.89
2023-10-15T03:21:49.722Z,5.87
2023-10-15T03:22:52.136Z,5.86
2023-10-15T03:23:53.170Z,5.85
2023-10-15T03:24:54.886Z,5.83
2023-10-15T03:25:56.658Z,5.81
2023-10-15T03:26:58.359Z,5.8
2023-10-15T03:28:00.110Z,5.78
2023-10-15T03:29:01.831Z,5.76
2023-10-15T03:30:03.551Z,5.74
2023-10-15T03:31:05.299Z,5.73
2023-10-15T03:32:07.054Z,5.72
2023-10-15T03:33:08.785Z,5.7
2023-10-15T03:34:10.499Z,5.68
2023-10-15T03:35:12.260Z,5.65
2023-10-15T03:36:14.182Z,5.63
2023-10-15T03:37:15.716Z,5.61
2023-10-15T03:38:17.422Z,5.59
2023-10-15T03:39:19.142Z,5.56
2023-10-15T03:40:20.903Z,5.54
2023-10-15T03:41:22.648Z,5.51
2023-10-15T03:42:24.396Z,5.48
2023-10-15T03:43:26.149Z,5.46
2023-10-15T03:44:27.836Z,5.43
2023-10-15T03:45:29.570Z,5.4
2023-10-15T03:46:31.332Z,5.38
2023-10-15T03:47:33.076Z,5.35
2023-10-15T03:48:34.760Z,5.32
2023-10-15T03:49:47.093Z,5.29
2023-10-15T03:50:48.494Z,5.25
2023-10-15T03:51:50.253Z,5.22
2023-10-15T03:52:52.032Z,5.2
2023-10-15T03:53:53.702Z,5.18
2023-10-15T03:54:55.446Z,5.16
2023-10-15T03:55:57.187Z,5.13
2023-10-15T03:56:58.889Z,5.11
2023-10-15T03:58:00.652Z,5.1
2023-10-15T03:59:02.417Z,5.08
2023-10-15T04:00:04.102Z,5.07
2023-10-15T04:01:05.870Z,5.07
2023-10-15T04:02:07.696Z,5.05
2023-10-15T04:03:09.375Z,5.05
2023-10-15T04:04:11.070Z,5.03
2023-10-15T04:05:12.791Z,5.02
2023-10-15T04:06:14.817Z,5
2023-10-15T04:07:16.223Z,4.98
2023-10-15T04:08:18.010Z,4.97
2023-10-15T04:09:19.690Z,4.96
2023-10-15T04:10:22.862Z,4.94
2023-10-15T04:11:23.178Z,4.91
2023-10-15T04:12:24.917Z,4.9
2023-10-15T04:13:26.663Z,4.89
2023-10-15T04:14:28.354Z,4.87
2023-10-15T04:15:30.069Z,4.85
2023-10-15T04:16:31.812Z,4.84
2023-10-15T04:17:33.629Z,4.83
2023-10-15T04:18:35.396Z,4.83
2023-10-15T04:19:37.216Z,4.82
2023-10-15T04:20:38.738Z,4.82
2023-10-15T04:21:40.478Z,4.81
2023-10-15T04:22:42.255Z,4.8
2023-10-15T04:23:43.950Z,4.79
2023-10-15T04:24:45.669Z,4.8
2023-10-15T04:25:48.804Z,4.81
2023-10-15T04:26:49.125Z,4.82
2023-10-15T04:27:50.870Z,4.83
2023-10-15T04:28:52.680Z,4.84
2023-10-15T04:29:54.356Z,4.85
2023-10-15T04:30:56.112Z,4.85
2023-10-15T04:31:57.964Z,4.86
2023-10-15T04:32:59.585Z,4.87
2023-10-15T04:34:01.443Z,4.87
2023-10-15T04:35:03.420Z,4.85
2023-10-15T04:36:04.760Z,4.86
2023-10-15T04:37:06.473Z,4.87
2023-10-15T04:38:08.271Z,4.85
2023-10-15T04:39:10.204Z,4.84
2023-10-15T04:40:19.181Z,4.84
2023-10-15T04:41:13.420Z,4.84
2023-10-15T04:42:15.145Z,4.84
2023-10-15T04:43:16.878Z,4.83
2023-10-15T04:44:18.639Z,4.82
2023-10-15T04:45:22.574Z,4.83
2023-10-15T04:46:29.193Z,4.82
2023-10-15T04:47:34.167Z,4.82
2023-10-15T04:48:37.203Z,4.82
2023-10-15T04:49:38.979Z,4.81
2023-10-15T04:50:39.372Z,4.81
2023-10-15T04:51:42.341Z,4.8
2023-10-15T04:52:42.815Z,4.81
2023-10-15T04:53:44.503Z,4.81
2023-10-15T04:54:46.249Z,4.81
2023-10-15T04:55:48.014Z,4.82
2023-10-15T04:56:49.726Z,4.82
2023-10-15T04:57:51.449Z,4.83
2023-10-15T04:58:53.230Z,4.83
2023-10-15T04:59:54.934Z,4.83
2023-10-15T05:00:56.687Z,4.83
2023-10-15T05:01:58.413Z,4.82
2023-10-15T05:03:00.291Z,4.82
2023-10-15T05:04:01.928Z,4.81
2023-10-15T05:05:03.614Z,4.8
2023-10-15T05:06:05.314Z,4.79
2023-10-15T05:07:07.038Z,4.79
2023-10-15T05:08:08.808Z,4.78
2023-10-15T05:09:10.522Z,4.78
2023-10-15T05:10:12.333Z,4.77
2023-10-15T05:11:13.969Z,4.76
2023-10-15T05:12:15.729Z,4.76
2023-10-15T05:13:17.439Z,4.76
2023-10-15T05:14:19.209Z,4.77
2023-10-15T05:15:20.979Z,4.77
2023-10-15T05:16:24.022Z,4.78
2023-10-15T05:17:24.420Z,4.79
2023-10-15T05:18:26.108Z,4.79
2023-10-15T05:19:27.898Z,4.81
2023-10-15T05:20:29.614Z,4.81
2023-10-15T05:21:31.327Z,4.81
2023-10-15T05:22:33.087Z,4.82
2023-10-15T05:23:34.778Z,4.83
2023-10-15T05:24:36.531Z,4.84
2023-10-15T05:25:39.959Z,4.85
2023-10-15T05:26:40.001Z,4.85
2023-10-15T05:27:41.718Z,4.86
2023-10-15T05:28:43.532Z,4.87
2023-10-15T05:29:45.172Z,4.87
2023-10-15T05:30:47.072Z,4.87
2023-10-15T05:31:48.686Z,4.87
2023-10-15T05:32:50.398Z,4.87
2023-10-15T05:33:52.207Z,4.87
2023-10-15T05:34:53.973Z,4.87
2023-10-15T05:35:55.590Z,4.85
2023-10-15T05:36:57.302Z,4.85
2023-10-15T05:37:59.102Z,4.84
2023-10-15T05:39:00.775Z,4.83
2023-10-15T05:40:02.504Z,4.82
2023-10-15T05:41:04.337Z,4.83
2023-10-15T05:42:05.968Z,4.82
2023-10-15T05:43:07.730Z,4.83
2023-10-15T05:44:09.464Z,4.83
2023-10-15T05:45:11.186Z,4.83
2023-10-15T05:46:12.959Z,4.82
2023-10-15T05:47:14.788Z,4.82
2023-10-15T05:48:16.441Z,4.83
2023-10-15T05:49:18.108Z,4.83
2023-10-15T05:50:19.849Z,4.82
2023-10-15T05:51:21.624Z,4.82
2023-10-15T05:52:23.544Z,4.83
2023-10-15T05:53:25.054Z,4.83
2023-10-15T05:54:26.847Z,4.83
2023-10-15T05:55:28.567Z,4.83
2023-10-15T05:56:30.288Z,4.84
2023-10-15T05:57:32.011Z,4.84
2023-10-15T05:58:33.769Z,4.85
2023-10-15T05:59:35.471Z,4.86
2023-10-15T06:00:37.246Z,4.87
2023-10-15T06:01:39.007Z,4.88
2023-10-15T06:02:40.719Z,4.89
2023-10-15T06:03:42.409Z,4.89
2023-10-15T06:04:44.166Z,4.9
2023-10-15T06:05:45.859Z,4.91
2023-10-15T06:06:47.618Z,4.91
2023-10-15T06:07:49.401Z,4.91
2023-10-15T06:08:51.090Z,4.93
2023-10-15T06:09:52.810Z,4.94
2023-10-15T06:10:54.587Z,4.96
2023-10-15T06:11:56.314Z,4.97
2023-10-15T06:12:58.024Z,4.98
2023-10-15T06:13:59.745Z,5
2023-10-15T06:15:01.461Z,5.02
2023-10-15T06:16:03.251Z,5.04
2023-10-15T06:17:05.023Z,5.05
2023-10-15T06:18:06.755Z,5.06
2023-10-15T06:19:08.399Z,5.08
2023-10-15T06:20:10.160Z,5.1
2023-10-15T06:21:11.883Z,5.12
2023-10-15T06:22:13.641Z,5.14
2023-10-15T06:23:15.339Z,5.17
2023-10-15T06:24:17.067Z,5.18
2023-10-15T06:25:19.081Z,5.21
2023-10-15T06:26:20.658Z,5.24
2023-10-15T06:27:22.284Z,5.26
2023-10-15T06:28:24.015Z,5.31
2023-10-15T06:29:25.776Z,5.34
2023-10-15T06:30:27.632Z,5.38
2023-10-15T06:31:29.255Z,5.41
2023-10-15T06:32:30.976Z,5.44
2023-10-15T06:33:31.837Z,5.46
2023-10-15T06:34:34.452Z,5.51
2023-10-15T06:35:36.144Z,5.53
2023-10-15T06:36:37.857Z,5.57
2023-10-15T06:37:39.675Z,5.6
2023-10-15T06:38:41.354Z,5.63
2023-10-15T06:39:43.093Z,5.66
2023-10-15T06:40:44.846Z,5.68
2023-10-15T06:41:46.521Z,5.71
2023-10-15T06:42:48.296Z,5.73
2023-10-15T06:43:52.156Z,5.75
2023-10-15T06:44:51.724Z,5.78
2023-10-15T06:45:53.466Z,5.79
2023-10-15T06:46:55.375Z,5.82
2023-10-15T06:47:57.074Z,5.84
2023-10-15T06:48:58.656Z,5.85
2023-10-15T06:50:00.547Z,5.88
2023-10-15T06:51:02.121Z,5.9
2023-10-15T06:52:03.884Z,5.92
2023-10-15T06:53:05.689Z,5.94
2023-10-15T06:54:07.342Z,5.97
2023-10-15T06:55:09.060Z,5.99
2023-10-15T06:56:10.833Z,6.01
2023-10-15T06:57:12.575Z,6.03
2023-10-15T06:58:14.291Z,6.05
2023-10-15T06:59:16.176Z,6.07
2023-10-15T07:00:17.728Z,6.09
2023-10-15T07:01:19.472Z,6.11
2023-10-15T07:02:21.188Z,6.12
2023-10-15T07:03:23.055Z,6.15
2023-10-15T07:04:26.020Z,6.16
2023-10-15T07:05:28.371Z,6.18
2023-10-15T07:06:28.110Z,6.2
2023-10-15T07:07:29.890Z,6.23
2023-10-15T07:08:31.617Z,6.26
2023-10-15T07:09:33.368Z,6.27
2023-10-15T07:10:35.076Z,6.29
2023-10-15T07:11:36.806Z,6.31
2023-10-15T07:12:38.531Z,6.32
2023-10-15T07:13:40.308Z,6.35
2023-10-15T07:14:41.981Z,6.37
2023-10-15T07:15:43.736Z,6.38
2023-10-15T07:16:45.617Z,6.4
2023-10-15T07:17:47.412Z,6.42
2023-10-15T07:18:48.912Z,6.43
2023-10-15T07:19:50.678Z,6.46
2023-10-15T07:20:52.393Z,6.48
2023-10-15T07:21:54.113Z,6.5
2023-10-15T07:22:55.939Z,6.52
2023-10-15T07:23:57.583Z,6.53
2023-10-15T07:24:59.330Z,6.56
2023-10-15T07:26:01.107Z,6.59
2023-10-15T07:27:02.793Z,6.61
2023-10-15T07:28:04.513Z,6.63
2023-10-15T07:29:06.285Z,6.65
2023-10-15T07:30:08.029Z,6.65
2023-10-15T07:31:09.793Z,6.66
2023-10-15T07:32:11.524Z,6.68
2023-10-15T07:33:13.289Z,6.69
2023-10-15T07:34:14.891Z,6.72
2023-10-15T07:35:16.746Z,6.73
2023-10-15T07:36:18.373Z,6.78
2023-10-15T07:37:20.151Z,6.83
2023-10-15T07:38:22.033Z,6.86
2023-10-15T07:39:24.464Z,6.93
2023-10-15T07:40:32.641Z,6.99
2023-10-15T07:41:37.339Z,7.1
2023-10-15T07:42:39.055Z,7.16
2023-10-15T07:43:40.848Z,7.23
2023-10-15T07:44:43.952Z,7.26
2023-10-15T07:45:50.062Z,7.31
2023-10-15T07:46:51.418Z,7.34
2023-10-15T07:47:52.886Z,7.39
2023-10-15T07:48:54.966Z,7.41
2023-10-15T07:49:56.378Z,7.44
2023-10-15T07:50:58.068Z,7.48
2023-10-15T07:52:01.170Z,7.5
2023-10-15T07:53:01.576Z,7.53
2023-10-15T07:54:07.456Z,7.54
2023-10-15T07:55:10.111Z,7.56
2023-10-15T07:56:11.890Z,7.58
2023-10-15T07:57:13.581Z,7.6
2023-10-15T07:58:15.300Z,7.61
2023-10-15T07:59:17.213Z,7.62
2023-10-15T08:00:18.772Z,7.62
2023-10-15T08:01:20.587Z,7.64
2023-10-15T08:02:22.442Z,7.64
2023-10-15T08:03:24.238Z,7.64
2023-10-15T08:04:26.096Z,7.64
2023-10-15T08:05:27.934Z,7.65
2023-10-15T08:06:29.491Z,7.66
2023-10-15T08:07:31.035Z,7.68
2023-10-15T08:08:32.639Z,7.69
2023-10-15T08:09:34.385Z,7.72
2023-10-15T08:10:38.862Z,7.79
2023-10-15T08:12:35.056Z,7.92
2023-10-15T08:14:45.737Z,8
2023-10-15T08:18:14.732Z,8.21
2023-10-15T08:19:16.420Z,8.22
2023-10-15T08:20:18.169Z,8.24
2023-10-15T08:21:19.969Z,8.28
2023-10-15T08:22:21.630Z,8.36
2023-10-15T08:23:23.376Z,8.43
2023-10-15T08:24:25.378Z,8.51
2023-10-15T08:25:26.824Z,8.59
2023-10-15T08:26:28.534Z,8.68
2023-10-15T08:27:30.280Z,8.75
2023-10-15T08:28:32.075Z,8.82
2023-10-15T08:29:33.749Z,8.91
2023-10-15T08:30:35.538Z,8.99
2023-10-15T08:31:37.261Z,9.07
2023-10-15T08:32:38.976Z,9.13
2023-10-15T08:33:41.782Z,9.22
2023-10-15T08:34:42.454Z,9.31
2023-10-15T08:35:44.157Z,9.38
2023-10-15T08:36:45.879Z,9.45
2023-10-15T08:37:47.666Z,9.49
2023-10-15T08:38:49.353Z,9.55
2023-10-15T08:39:51.082Z,9.58
2023-10-15T08:40:52.851Z,9.67
2023-10-15T08:41:54.676Z,9.73
2023-10-15T08:42:56.299Z,9.81
2023-10-15T08:43:58.057Z,9.86
2023-10-15T08:44:59.764Z,9.92
2023-10-15T08:46:01.768Z,9.97
2023-10-15T08:47:03.240Z,10
2023-10-15T08:48:05.012Z,10.04
2023-10-15T08:49:06.678Z,10.06
2023-10-15T08:50:08.463Z,10.09
2023-10-15T08:51:10.165Z,10.12
2023-10-15T08:52:12.076Z,10.13
2023-10-15T08:53:13.920Z,10.11
2023-10-15T08:54:15.392Z,10.09
2023-10-15T08:55:17.079Z,10.08
2023-10-15T08:56:18.845Z,10.1
2023-10-15T08:57:20.559Z,10.08
2023-10-15T08:58:22.303Z,10.11
2023-10-15T08:59:24.016Z,10.07
2023-10-15T09:00:31.969Z,10.08
2023-10-15T09:01:27.694Z,10.1
2023-10-15T09:02:29.365Z,10.15
2023-10-15T09:03:31.008Z,10.19
2023-10-15T09:04:32.714Z,10.23
2023-10-15T09:05:34.449Z,10.28
2023-10-15T09:06:36.163Z,10.32
2023-10-15T09:07:37.953Z,10.39
2023-10-15T09:08:39.724Z,10.45
2023-10-15T09:09:41.451Z,10.53
2023-10-15T09:10:43.593Z,10.54
2023-10-15T09:11:44.995Z,10.53
2023-10-15T09:12:46.590Z,10.52
2023-10-15T09:13:48.350Z,10.57
2023-10-15T09:14:50.047Z,10.58
2023-10-15T09:15:51.762Z,10.59
2023-10-15T09:16:54.371Z,10.64
2023-10-15T09:17:55.277Z,10.65
2023-10-15T09:18:57.026Z,10.64
2023-10-15T09:19:58.768Z,10.63
2023-10-15T09:21:00.407Z,10.68
2023-10-15T09:22:02.151Z,10.72
2023-10-15T09:23:04.516Z,10.74
2023-10-15T09:24:05.636Z,10.77
2023-10-15T09:25:07.360Z,10.75
2023-10-15T09:26:09.131Z,10.76
2023-10-15T09:27:10.814Z,10.77
2023-10-15T09:28:12.582Z,10.78
2023-10-15T09:29:14.315Z,10.73
2023-10-15T09:30:16.043Z,10.69
2023-10-15T09:31:17.804Z,10.65
2023-10-15T09:32:19.626Z,10.67
2023-10-15T09:33:21.299Z,10.65
2023-10-15T09:34:22.948Z,10.62
2023-10-15T09:35:24.665Z,10.59
2023-10-15T09:36:28.013Z,10.58
2023-10-15T09:37:28.163Z,10.55
2023-10-15T09:38:29.890Z,10.55
2023-10-15T09:39:31.618Z,10.55
2023-10-15T09:40:33.357Z,10.55
2023-10-15T09:41:35.084Z,10.5
2023-10-15T09:42:36.820Z,10.46
2023-10-15T09:43:39.141Z,10.46
2023-10-15T09:44:40.282Z,10.47
2023-10-15T09:45:42.034Z,10.44
2023-10-15T09:46:43.817Z,10.41
2023-10-15T09:47:45.541Z,10.36
2023-10-15T09:48:47.211Z,10.34
2023-10-15T09:49:48.954Z,10.33
2023-10-15T09:50:50.676Z,10.3
2023-10-15T09:51:52.442Z,10.26
2023-10-15T09:52:54.199Z,10.23
2023-10-15T09:53:55.868Z,10.18
2023-10-15T09:54:57.641Z,10.15
2023-10-15T09:55:59.404Z,10.12
2023-10-15T09:57:01.096Z,10.1
2023-10-15T09:58:02.854Z,10.08
2023-10-15T09:59:04.611Z,10.07
2023-10-15T10:00:06.293Z,10.05
2023-10-15T10:01:08.041Z,10.02
2023-10-15T10:02:12.595Z,10
2023-10-15T10:03:11.552Z,9.96
2023-10-15T10:04:13.328Z,9.94
2023-10-15T10:05:14.954Z,9.91
2023-10-15T10:06:16.709Z,9.88
2023-10-15T10:07:18.422Z,9.84
2023-10-15T10:08:20.185Z,9.83
2023-10-15T10:09:21.900Z,9.79
2023-10-15T10:10:23.627Z,9.78
2023-10-15T10:11:25.461Z,9.8
2023-10-15T10:12:27.096Z,9.85
2023-10-15T10:13:28.859Z,9.85
2023-10-15T10:14:30.780Z,9.91
2023-10-15T10:15:32.299Z,9.97
2023-10-15T10:16:34.169Z,10.03
2023-10-15T10:17:35.918Z,10.09
2023-10-15T10:18:37.700Z,10.14
2023-10-15T10:19:39.301Z,10.2
2023-10-15T10:20:40.962Z,10.23
2023-10-15T10:21:42.684Z,10.3
2023-10-15T10:22:46.082Z,10.37
2023-10-15T10:23:48.886Z,10.43
2023-10-15T10:24:47.873Z,10.49
2023-10-15T10:25:49.730Z,10.52
2023-10-15T10:26:51.373Z,10.53
2023-10-15T10:28:03.740Z,10.57
2023-10-15T10:28:54.868Z,10.59
2023-10-15T10:29:56.553Z,10.59
2023-10-15T10:30:58.366Z,10.59
2023-10-15T10:32:00.154Z,10.57
2023-10-15T10:33:01.782Z,10.58
2023-10-15T10:34:03.523Z,10.56
2023-10-15T10:35:05.397Z,10.57
2023-10-15T10:36:06.958Z,10.6
2023-10-15T10:37:08.701Z,10.67
2023-10-15T10:38:10.646Z,10.74
2023-10-15T10:39:12.167Z,10.85
2023-10-15T10:40:13.914Z,10.96
2023-10-15T10:41:25.242Z,11.06
2023-10-15T10:42:17.402Z,11.17
2023-10-15T10:43:19.116Z,11.29
2023-10-15T10:44:26.699Z,11.41
2023-10-15T10:45:22.596Z,11.56
2023-10-15T10:46:24.294Z,11.69
2023-10-15T10:47:26.061Z,11.79
2023-10-15T10:48:27.670Z,11.81
2023-10-15T10:49:29.345Z,11.83
2023-10-15T10:50:31.081Z,11.82
2023-10-15T10:51:32.806Z,11.87
2023-10-15T10:52:34.559Z,11.91
2023-10-15T10:53:36.496Z,11.93
2023-10-15T10:54:38.020Z,11.96
2023-10-15T10:55:39.742Z,11.99
2023-10-15T10:56:41.477Z,12.06
2023-10-15T10:57:43.240Z,12.15
2023-10-15T10:58:44.967Z,12.13
2023-10-15T10:59:46.688Z,12.19
2023-10-15T11:00:48.460Z,12.29
2023-10-15T11:01:50.310Z,12.29
2023-10-15T11:02:51.886Z,12.24
2023-10-15T11:03:53.663Z,12.29
2023-10-15T11:04:55.360Z,12.29
2023-10-15T11:05:57.233Z,12.27
2023-10-15T11:06:58.802Z,12.23
2023-10-15T11:08:00.606Z,12.19
2023-10-15T11:09:02.273Z,12.16
2023-10-15T11:10:04.043Z,12.18
2023-10-15T11:11:05.752Z,12.14
2023-10-15T11:12:07.468Z,12.1
2023-10-15T11:13:09.229Z,12.11
2023-10-15T11:14:11.193Z,12.11
2023-10-15T11:15:12.660Z,12.13
2023-10-15T11:16:14.705Z,12.17
2023-10-15T11:17:16.183Z,12.18
2023-10-15T11:18:17.867Z,12.21
2023-10-15T11:19:19.593Z,12.23
2023-10-15T11:20:21.432Z,12.23
2023-10-15T11:21:23.106Z,12.23
2023-10-15T11:22:24.787Z,12.22
2023-10-15T11:23:26.544Z,12.22
2023-10-15T11:24:28.441Z,12.19
2023-10-15T11:25:30.031Z,12.19
2023-10-15T11:26:31.708Z,12.18
2023-10-15T11:27:33.526Z,12.15
2023-10-15T11:28:35.284Z,12.13
2023-10-15T11:29:36.913Z,12.19
2023-10-15T11:30:38.684Z,12.17
2023-10-15T11:31:40.409Z,12.17
2023-10-15T11:32:42.162Z,12.15
2023-10-15T11:33:43.868Z,12.13
2023-10-15T11:34:45.638Z,12.09
2023-10-15T11:35:47.356Z,11.98
2023-10-15T11:36:49.072Z,11.9
2023-10-15T11:37:50.964Z,11.71
2023-10-15T11:38:52.520Z,11.6
2023-10-15T11:39:54.251Z,11.35
2023-10-15T11:40:56.173Z,11.11
2023-10-15T11:41:57.958Z,10.87
2023-10-15T11:42:59.447Z,10.63
2023-10-15T11:44:01.229Z,10.49
2023-10-15T11:45:02.943Z,10.21
2023-10-15T11:46:04.679Z,10.03
2023-10-15T11:47:06.439Z,9.87
2023-10-15T11:48:08.238Z,9.68
2023-10-15T11:49:09.853Z,9.47
2023-10-15T11:50:11.686Z,9.35
2023-10-15T11:51:13.336Z,9.18
2023-10-15T11:52:15.056Z,9.01
2023-10-15T11:53:16.823Z,8.9
2023-10-15T11:54:18.523Z,8.73
2023-10-15T11:55:20.257Z,8.66
2023-10-15T11:56:22.005Z,8.59
2023-10-15T11:57:23.780Z,8.49
2023-10-15T11:58:25.462Z,8.42
2023-10-15T11:59:27.384Z,8.35
2023-10-15T12:00:28.930Z,8.28
2023-10-15T12:01:30.690Z,8.23
2023-10-15T12:02:35.086Z,8.18
2023-10-15T12:03:34.229Z,8.13
2023-10-15T12:04:35.864Z,8.1
2023-10-15T12:05:37.584Z,8.06
2023-10-15T12:06:39.351Z,8.04
2023-10-15T12:07:41.092Z,8.01
2023-10-15T12:08:42.813Z,8
2023-10-15T12:09:44.527Z,7.96
2023-10-15T12:10:46.350Z,7.96
2023-10-15T12:11:48.048Z,7.95
2023-10-15T12:12:49.735Z,7.93
2023-10-15T12:13:51.690Z,7.92
2023-10-15T12:14:53.189Z,7.92
2023-10-15T12:15:54.934Z,7.92
2023-10-15T12:16:56.727Z,7.93
2023-10-15T12:17:58.408Z,7.94
2023-10-15T12:19:00.122Z,7.95
2023-10-15T12:21:03.606Z,7.97
2023-10-15T12:22:05.330Z,7.98
2023-10-15T12:23:07.098Z,7.97
2023-10-15T12:24:08.802Z,7.96
2023-10-15T12:25:10.670Z,7.96
2023-10-15T12:26:12.463Z,7.96
2023-10-15T12:27:14.007Z,7.99
2023-10-15T12:28:15.763Z,8.03
2023-10-15T12:29:29.688Z,8.07
2023-10-15T12:30:19.317Z,8.16
2023-10-15T12:31:20.986Z,8.22
2023-10-15T12:32:25.880Z,8.32
2023-10-15T12:33:24.401Z,8.41
2023-10-15T12:34:26.390Z,8.5
2023-10-15T12:35:27.850Z,8.6
2023-10-15T12:36:29.582Z,8.69
2023-10-15T12:37:31.335Z,8.78
2023-10-15T12:38:33.090Z,8.86
2023-10-15T12:39:34.778Z,8.94
2023-10-15T12:40:36.545Z,9.01
2023-10-15T12:41:38.232Z,9.09
2023-10-15T12:42:40.012Z,9.15
2023-10-15T12:43:41.807Z,9.22
2023-10-15T12:44:43.449Z,9.28
2023-10-15T12:45:45.181Z,9.38
2023-10-15T12:46:46.999Z,9.46
2023-10-15T12:47:48.796Z,9.53
2023-10-15T12:48:50.418Z,9.64
2023-10-15T12:49:52.160Z,9.73
2023-10-15T12:50:53.892Z,9.81
2023-10-15T12:51:55.601Z,9.89
2023-10-15T12:52:57.454Z,9.95
2023-10-15T12:53:59.058Z,10.02
2023-10-15T12:55:00.788Z,10.08
2023-10-15T12:56:02.561Z,10.15
2023-10-15T12:57:04.350Z,10.2
2023-10-15T12:58:06.022Z,10.27
2023-10-15T12:59:07.788Z,10.33
2023-10-15T13:00:09.478Z,10.38
2023-10-15T13:01:11.234Z,10.42
2023-10-15T13:02:12.963Z,10.45
2023-10-15T13:03:14.684Z,10.51
2023-10-15T13:04:16.435Z,10.57
2023-10-15T13:05:18.206Z,10.61
2023-10-15T13:06:19.851Z,10.62
2023-10-15T13:07:21.584Z,10.61
2023-10-15T13:08:23.391Z,10.59
2023-10-15T13:09:25.077Z,10.55
2023-10-15T13:10:26.806Z,10.48
2023-10-15T13:11:28.594Z,10.44
2023-10-15T13:12:30.256Z,10.38
2023-10-15T13:13:31.989Z,10.32
2023-10-15T13:14:33.737Z,10.28
2023-10-15T13:15:35.436Z,10.21
2023-10-15T13:16:37.204Z,10.18
2023-10-15T13:17:38.982Z,10.17
2023-10-15T13:18:40.689Z,10.16
2023-10-15T13:19:42.429Z,10.18
2023-10-15T13:20:44.103Z,10.23
2023-10-15T13:21:45.863Z,10.31
2023-10-15T13:22:47.666Z,10.38
2023-10-15T13:23:49.323Z,10.47
2023-10-15T13:24:51.058Z,10.54
2023-10-15T13:25:52.812Z,10.64
2023-10-15T13:26:54.512Z,10.73
2023-10-15T13:27:56.245Z,10.83
2023-10-15T13:28:58.013Z,10.95
2023-10-15T13:29:59.722Z,11.05
2023-10-15T13:31:01.583Z,11.17
2023-10-15T13:32:03.214Z,11.27
2023-10-15T13:33:04.980Z,11.35
2023-10-15T13:34:06.680Z,11.42
2023-10-15T13:35:08.429Z,11.49
2023-10-15T13:36:11.477Z,11.54
2023-10-15T13:37:11.891Z,11.58
2023-10-15T13:38:13.687Z,11.63
2023-10-15T13:39:15.431Z,11.65
2023-10-15T13:40:17.358Z,11.64
2023-10-15T13:41:18.850Z,11.63
2023-10-15T13:42:20.532Z,11.62
2023-10-15T13:43:22.486Z,11.62
2023-10-15T13:44:24.243Z,11.61
2023-10-15T13:45:25.719Z,11.59
2023-10-15T13:46:27.500Z,11.51
2023-10-15T13:47:29.232Z,11.44
2023-10-15T13:48:30.943Z,11.41
2023-10-15T13:49:32.668Z,11.37
2023-10-15T13:50:34.428Z,11.35